createdAt,value
2022-08-21T00:01:07.977Z,100.00
2022-08-21T00:03:35.057Z,100.00
2022-08-21T00:06:05.359Z,100.00
2022-08-21T00:08:32.619Z,100.00
2022-08-21T00:10:59.702Z,100.00
2022-08-21T00:13:26.813Z,100.00
2022-08-21T00:15:53.936Z,100.00
2022-08-21T00:18:21.077Z,100.00
2022-08-21T00:20:48.735Z,100.00
2022-08-21T00:23:16.772Z,100.00
2022-08-21T00:25:45.577Z,100.00
2022-08-21T00:28:14.354Z,100.00
2022-08-21T00:30:42.216Z,100.00
2022-08-21T00:33:09.895Z,100.00
2022-08-21T00:35:38.137Z,100.00
2022-08-21T00:38:07.687Z,100.00
2022-08-21T00:40:53.910Z,100.00
2022-08-21T00:43:24.742Z,100.00
2022-08-21T00:45:52.314Z,100.00
2022-08-21T00:48:21.417Z,100.00
2022-08-21T00:50:57.162Z,100.00
2022-08-21T00:53:24.961Z,100.00
2022-08-21T00:55:53.635Z,100.00
2022-08-21T00:58:24.782Z,100.00
2022-08-21T01:00:54.180Z,100.00
2022-08-21T01:03:25.642Z,100.00
2022-08-21T01:05:55.195Z,100.00
2022-08-21T01:08:23.312Z,100.00
2022-08-21T01:10:54.512Z,100.00
2022-08-21T01:13:24.771Z,100.00
2022-08-21T01:15:54.085Z,100.00
2022-08-21T01:18:22.359Z,100.00
2022-08-21T01:21:13.741Z,100.00
2022-08-21T01:23:44.608Z,100.00
2022-08-21T01:26:13.753Z,100.00
2022-08-21T01:28:51.145Z,100.00
2022-08-21T01:31:25.930Z,100.00
2022-08-21T01:33:54.616Z,100.00
2022-08-21T01:36:21.690Z,100.00
2022-08-21T01:38:49.480Z,100.00
2022-08-21T01:41:17.362Z,100.00
2022-08-21T01:43:45.685Z,100.00
2022-08-21T01:46:13.742Z,100.00
2022-08-21T01:48:41.640Z,100.00
2022-08-21T01:51:09.516Z,100.00
2022-08-21T01:53:37.993Z,100.00
2022-08-21T01:56:12.091Z,100.00
2022-08-21T01:58:42.359Z,100.00
2022-08-21T02:01:10.569Z,100.00
2022-08-21T02:03:38.624Z,100.00
2022-08-21T02:06:08.119Z,100.00
2022-08-21T02:08:35.904Z,100.00
2022-08-21T02:11:03.015Z,100.00
2022-08-21T02:13:30.213Z,100.00
2022-08-21T02:15:57.469Z,100.00
2022-08-21T02:18:24.529Z,100.00
2022-08-21T02:20:55.279Z,100.00
2022-08-21T02:23:27.372Z,100.00
2022-08-21T02:26:06.017Z,100.00
2022-08-21T02:28:34.078Z,100.00
2022-08-21T02:31:02.568Z,100.00
2022-08-21T02:33:30.342Z,100.00
2022-08-21T02:35:57.947Z,100.00
2022-08-21T02:38:26.598Z,100.00
2022-08-21T02:40:54.874Z,100.00
2022-08-21T02:43:24.711Z,100.00
2022-08-21T02:45:53.178Z,100.00
2022-08-21T02:48:25.729Z,100.00
2022-08-21T02:51:06.558Z,100.00
2022-08-21T02:53:34.408Z,100.00
2022-08-21T02:56:03.642Z,100.00
2022-08-21T02:58:34.643Z,100.00
2022-08-21T03:01:01.913Z,100.00
2022-08-21T03:03:30.422Z,100.00
2022-08-21T03:05:57.989Z,100.00
2022-08-21T03:08:26.492Z,100.00
2022-08-21T03:10:55.946Z,100.00
2022-08-21T03:13:23.740Z,100.00
2022-08-21T03:15:51.761Z,100.00
2022-08-21T03:18:19.001Z,100.00
2022-08-21T03:20:46.735Z,100.00
2022-08-21T03:23:18.481Z,100.00
2022-08-21T03:25:48.045Z,100.00
2022-08-21T03:28:20.232Z,100.00
2022-08-21T03:30:50.555Z,100.00
2022-08-21T03:33:19.808Z,100.00
2022-08-21T03:36:01.796Z,100.00
2022-08-21T03:38:32.078Z,100.00
2022-08-21T03:41:00.447Z,100.00
2022-08-21T03:43:31.248Z,100.00
2022-08-21T03:46:02.183Z,100.00
2022-08-21T03:48:30.262Z,100.00
2022-08-21T03:50:57.800Z,100.00
2022-08-21T03:53:26.194Z,100.00
2022-08-21T03:55:53.890Z,100.00
2022-08-21T03:58:22.237Z,100.00
2022-08-21T04:00:52.423Z,100.00
2022-08-21T04:03:21.187Z,100.00
2022-08-21T04:05:48.592Z,100.00
2022-08-21T04:08:18.543Z,100.00
2022-08-21T04:10:48.789Z,100.00
2022-08-21T04:13:16.423Z,100.00
2022-08-21T04:15:43.876Z,100.00
2022-08-21T04:18:11.307Z,100.00
2022-08-21T04:20:38.942Z,100.00
2022-08-21T04:23:06.608Z,100.00
2022-08-21T04:25:33.573Z,100.00
2022-08-21T04:28:00.705Z,100.00
2022-08-21T04:30:28.725Z,100.00
2022-08-21T04:32:57.823Z,100.00
2022-08-21T04:35:27.349Z,100.00
2022-08-21T04:37:54.713Z,100.00
2022-08-21T04:40:25.309Z,100.00
2022-08-21T04:42:55.791Z,100.00
2022-08-21T04:45:33.065Z,100.00
2022-08-21T04:48:02.814Z,100.00
2022-08-21T04:50:40.947Z,100.00
2022-08-21T04:53:13.083Z,100.00
2022-08-21T04:55:43.290Z,100.00
2022-08-21T04:58:16.294Z,100.00
2022-08-21T05:00:43.516Z,100.00
2022-08-21T05:03:12.728Z,100.00
2022-08-21T05:05:41.211Z,100.00
2022-08-21T05:08:10.563Z,100.00
2022-08-21T05:10:37.697Z,100.00
2022-08-21T05:13:06.718Z,100.00
2022-08-21T05:15:33.854Z,100.00
2022-08-21T05:18:01.680Z,100.00
2022-08-21T05:20:29.560Z,100.00
2022-08-21T05:22:57.076Z,100.00
2022-08-21T05:25:24.135Z,100.00
2022-08-21T05:27:52.020Z,100.00
2022-08-21T05:30:20.715Z,100.00
2022-08-21T05:32:51.391Z,100.00
2022-08-21T05:35:18.583Z,100.00
2022-08-21T05:37:45.640Z,100.00
2022-08-21T05:40:21.123Z,100.00
2022-08-21T05:42:54.268Z,100.00
2022-08-21T05:45:43.235Z,100.00
2022-08-21T05:48:18.654Z,100.00
2022-08-21T05:50:47.875Z,100.00
2022-08-21T05:53:16.218Z,100.00
2022-08-21T05:55:46.195Z,100.00
2022-08-21T05:58:19.746Z,100.00
2022-08-21T06:00:49.209Z,100.00
2022-08-21T06:03:20.866Z,100.00
2022-08-21T06:05:48.223Z,100.00
2022-08-21T06:08:17.439Z,100.00
2022-08-21T06:10:45.396Z,100.00
2022-08-21T06:13:13.615Z,100.00
2022-08-21T06:15:40.927Z,100.00
2022-08-21T06:18:08.662Z,100.00
2022-08-21T06:20:36.359Z,100.00
2022-08-21T06:23:04.326Z,100.00
2022-08-21T06:25:32.142Z,100.00
2022-08-21T06:28:10.235Z,100.00
2022-08-21T06:30:39.791Z,100.00
2022-08-21T06:33:08.310Z,99.68
2022-08-21T06:35:36.502Z,98.97
2022-08-21T06:38:04.850Z,99.10
2022-08-21T06:40:34.208Z,100.00
2022-08-21T06:43:11.642Z,97.71
2022-08-21T06:45:42.417Z,96.96
2022-08-21T06:48:09.777Z,96.57
2022-08-21T06:50:37.426Z,94.39
2022-08-21T06:53:11.268Z,93.86
2022-08-21T06:55:40.064Z,91.98
2022-08-21T06:58:07.640Z,87.87
2022-08-21T07:00:35.632Z,87.36
2022-08-21T07:03:03.595Z,91.21
2022-08-21T07:05:31.845Z,88.03
2022-08-21T07:07:59.295Z,88.32
2022-08-21T07:10:28.427Z,85.39
2022-08-21T07:13:00.865Z,85.69
2022-08-21T07:15:30.338Z,84.92
2022-08-21T07:17:58.427Z,82.76
2022-08-21T07:20:26.047Z,83.26
2022-08-21T07:22:53.493Z,83.91
2022-08-21T07:25:20.930Z,82.47
2022-08-21T07:27:48.093Z,82.82
2022-08-21T07:30:15.198Z,82.67
2022-08-21T07:32:42.385Z,82.91
2022-08-21T07:35:09.682Z,82.31
2022-08-21T07:37:36.680Z,81.66
2022-08-21T07:40:04.752Z,76.39
2022-08-21T07:42:32.121Z,77.50
2022-08-21T07:44:59.406Z,76.79
2022-08-21T07:47:41.482Z,76.27
2022-08-21T07:50:12.648Z,74.44
2022-08-21T07:52:43.736Z,74.12
2022-08-21T07:55:17.464Z,72.94
2022-08-21T07:57:45.604Z,70.62
2022-08-21T08:00:17.715Z,71.69
2022-08-21T08:02:52.237Z,72.63
2022-08-21T08:05:22.311Z,72.56
2022-08-21T08:07:49.546Z,72.11
2022-08-21T08:10:17.541Z,71.41
2022-08-21T08:12:45.429Z,71.68
2022-08-21T08:15:17.363Z,70.79
2022-08-21T08:17:44.917Z,70.62
2022-08-21T08:20:14.098Z,70.09
2022-08-21T08:22:42.642Z,71.50
2022-08-21T08:25:11.581Z,72.96
2022-08-21T08:27:39.298Z,70.46
2022-08-21T08:30:08.190Z,70.48
2022-08-21T08:32:35.333Z,69.80
2022-08-21T08:35:03.236Z,67.26
2022-08-21T08:37:34.329Z,68.91
2022-08-21T08:40:04.453Z,72.40
2022-08-21T08:42:36.877Z,73.05
2022-08-21T08:45:07.553Z,72.95
2022-08-21T08:47:39.236Z,73.02
2022-08-21T08:50:12.206Z,73.38
2022-08-21T08:52:49.556Z,72.71
2022-08-21T08:55:26.661Z,74.06
2022-08-21T08:57:58.647Z,72.92
2022-08-21T09:00:26.757Z,72.20
2022-08-21T09:02:57.822Z,71.41
2022-08-21T09:05:29.500Z,73.35
2022-08-21T09:08:39.619Z,74.57
2022-08-21T09:11:51.279Z,74.59
2022-08-21T09:14:35.013Z,75.87
2022-08-21T09:17:38.221Z,76.39
2022-08-21T09:20:20.391Z,76.48
2022-08-21T09:22:57.583Z,76.30
2022-08-21T09:25:27.532Z,76.62
2022-08-21T09:27:55.170Z,78.16
2022-08-21T09:30:29.112Z,78.04
2022-08-21T09:32:56.282Z,78.42
2022-08-21T09:35:25.418Z,78.69
2022-08-21T09:38:07.933Z,77.54
2022-08-21T09:40:42.955Z,78.18
2022-08-21T09:43:13.132Z,78.27
2022-08-21T09:45:43.071Z,78.52
2022-08-21T09:48:14.442Z,79.52
2022-08-21T09:50:42.935Z,79.58
2022-08-21T09:53:24.356Z,80.79
2022-08-21T09:56:14.116Z,80.99
2022-08-21T09:58:43.968Z,80.69
2022-08-21T10:01:17.707Z,80.09
2022-08-21T10:03:46.277Z,79.53
2022-08-21T10:06:25.797Z,77.72
2022-08-21T10:09:04.869Z,77.27
2022-08-21T10:11:33.306Z,77.32
2022-08-21T10:14:22.081Z,76.28
2022-08-21T10:17:08.856Z,77.61
2022-08-21T10:20:08.135Z,77.34
2022-08-21T10:22:53.933Z,79.18
2022-08-21T10:25:39.356Z,79.18
2022-08-21T10:28:26.810Z,78.75
2022-08-21T10:31:16.782Z,78.47
2022-08-21T10:34:02.144Z,78.00
2022-08-21T10:36:40.503Z,78.87
2022-08-21T10:39:35.832Z,80.07
2022-08-21T10:42:18.453Z,79.74
2022-08-21T10:45:13.751Z,78.71
2022-08-21T10:47:58.053Z,75.60
2022-08-21T10:50:50.565Z,75.23
2022-08-21T10:53:42.333Z,75.19
2022-08-21T10:56:30.635Z,74.84
2022-08-21T10:58:59.648Z,74.88
2022-08-21T11:01:35.861Z,75.21
2022-08-21T11:04:23.961Z,74.25
2022-08-21T11:07:06.584Z,73.67
2022-08-21T11:09:48.421Z,73.61
2022-08-21T11:12:51.885Z,74.10
2022-08-21T11:15:42.994Z,72.36
2022-08-21T11:19:02.229Z,71.07
2022-08-21T11:24:49.659Z,72.03
2022-08-21T11:27:28.966Z,71.64
2022-08-21T11:30:23.048Z,72.66
2022-08-21T11:33:00.266Z,73.72
2022-08-21T11:35:45.449Z,71.06
2022-08-21T11:38:36.025Z,71.21
2022-08-21T11:41:35.949Z,70.71
2022-08-21T11:44:15.317Z,71.69
2022-08-21T11:47:26.474Z,71.41
2022-08-21T11:49:59.675Z,70.97
2022-08-21T11:52:39.743Z,71.21
2022-08-21T11:55:31.224Z,69.87
2022-08-21T11:58:14.704Z,67.20
2022-08-21T12:00:48.463Z,65.61
2022-08-21T12:03:37.871Z,63.54
2022-08-21T12:06:15.324Z,64.26
2022-08-21T12:09:01.731Z,65.67
2022-08-21T12:11:30.852Z,65.73
2022-08-21T12:14:12.491Z,65.30
2022-08-21T12:16:42.734Z,63.10
2022-08-21T12:19:14.508Z,65.10
2022-08-21T12:21:58.517Z,66.47
2022-08-21T12:24:28.642Z,64.92
2022-08-21T12:26:58.165Z,64.70
2022-08-21T12:29:29.804Z,65.34
2022-08-21T12:32:02.425Z,62.98
2022-08-21T12:34:36.793Z,64.06
2022-08-21T12:37:16.652Z,65.37
2022-08-21T12:39:48.086Z,63.66
2022-08-21T12:42:23.801Z,62.99
2022-08-21T12:44:55.269Z,62.55
2022-08-21T12:47:31.486Z,63.02
2022-08-21T12:50:06.220Z,61.79
2022-08-21T12:52:47.463Z,60.56
2022-08-21T12:55:19.748Z,59.36
2022-08-21T12:57:46.749Z,59.13
2022-08-21T13:00:15.660Z,57.55
2022-08-21T13:02:51.049Z,57.51
2022-08-21T13:05:45.405Z,57.63
2022-08-21T13:08:15.026Z,55.94
2022-08-21T13:10:57.383Z,56.72
2022-08-21T13:13:28.127Z,55.97
2022-08-21T13:16:08.645Z,55.84
2022-08-21T13:18:40.811Z,57.11
2022-08-21T13:21:16.220Z,57.35
2022-08-21T13:23:45.030Z,55.61
2022-08-21T13:26:21.523Z,53.86
2022-08-21T13:28:51.576Z,55.40
2022-08-21T13:31:29.286Z,54.85
2022-08-21T13:33:57.367Z,54.64
2022-08-21T13:36:43.958Z,54.09
2022-08-21T13:39:20.349Z,55.00
2022-08-21T13:41:50.591Z,55.47
2022-08-21T13:44:27.727Z,52.39
2022-08-21T13:46:55.360Z,56.64
2022-08-21T13:49:30.343Z,56.95
2022-08-21T13:51:57.639Z,57.62
2022-08-21T13:54:37.650Z,59.53
2022-08-21T13:57:05.176Z,61.96
2022-08-21T13:59:37.308Z,63.47
2022-08-21T14:02:17.159Z,65.37
2022-08-21T14:05:02.294Z,66.35
2022-08-21T14:07:34.690Z,68.11
2022-08-21T14:10:14.295Z,69.45
2022-08-21T14:13:05.581Z,70.34
2022-08-21T14:15:36.030Z,70.56
2022-08-21T14:18:17.120Z,71.99
2022-08-21T14:20:46.277Z,72.83
2022-08-21T14:23:24.720Z,74.14
2022-08-21T14:25:52.126Z,74.85
2022-08-21T14:28:27.942Z,75.62
2022-08-21T14:30:56.549Z,77.19
2022-08-21T14:33:28.020Z,77.35
2022-08-21T14:35:55.463Z,76.81
2022-08-21T14:38:26.035Z,78.01
2022-08-21T14:40:56.321Z,77.98
2022-08-21T14:43:23.581Z,78.44
2022-08-21T14:45:50.914Z,80.05
2022-08-21T14:48:18.438Z,79.21
2022-08-21T14:50:45.556Z,80.89
2022-08-21T14:53:12.940Z,81.34
2022-08-21T14:55:59.708Z,82.67
2022-08-21T14:58:27.292Z,82.63
2022-08-21T15:00:56.444Z,82.70
2022-08-21T15:03:23.682Z,82.73
2022-08-21T15:05:51.145Z,82.89
2022-08-21T15:08:18.324Z,84.33
2022-08-21T15:11:10.144Z,85.49
2022-08-21T15:13:34.516Z,85.98
2022-08-21T15:16:02.130Z,87.79
2022-08-21T15:18:31.042Z,89.15
2022-08-21T15:20:58.730Z,91.25
2022-08-21T15:23:26.228Z,90.89
2022-08-21T15:25:53.538Z,91.73
2022-08-21T15:28:22.512Z,91.82
2022-08-21T15:30:50.911Z,92.81
2022-08-21T15:33:19.630Z,92.78
2022-08-21T15:35:47.385Z,93.71
2022-08-21T15:38:16.107Z,94.54
2022-08-21T15:40:51.738Z,93.42
2022-08-21T15:43:31.843Z,94.32
2022-08-21T15:46:02.897Z,94.15
2022-08-21T15:48:30.515Z,94.80
2022-08-21T15:50:57.556Z,95.05
2022-08-21T15:53:24.934Z,95.75
2022-08-21T15:55:52.156Z,97.16
2022-08-21T15:58:21.875Z,96.25
2022-08-21T16:00:49.075Z,95.40
2022-08-21T16:03:22.839Z,95.92
2022-08-21T16:05:53.432Z,95.82
2022-08-21T16:08:21.915Z,94.44
2022-08-21T16:10:49.592Z,94.70
2022-08-21T16:13:24.414Z,94.61
2022-08-21T16:15:51.929Z,94.85
2022-08-21T16:18:19.774Z,94.65
2022-08-21T16:20:46.913Z,94.91
2022-08-21T16:23:14.259Z,94.86
2022-08-21T16:25:42.306Z,94.89
2022-08-21T16:28:14.498Z,96.65
2022-08-21T16:30:43.959Z,95.85
2022-08-21T16:33:28.057Z,97.16
2022-08-21T16:35:55.205Z,97.13
2022-08-21T16:38:22.629Z,96.90
2022-08-21T16:40:49.929Z,97.60
2022-08-21T16:43:17.211Z,98.15
2022-08-21T16:45:45.281Z,98.00
2022-08-21T16:48:12.363Z,98.13
2022-08-21T16:50:40.980Z,97.88
2022-08-21T16:53:08.490Z,98.54
2022-08-21T16:55:36.817Z,99.41
2022-08-21T16:58:11.122Z,98.32
2022-08-21T17:00:38.500Z,100.00
2022-08-21T17:03:06.121Z,99.25
2022-08-21T17:05:32.915Z,100.00
2022-08-21T17:07:59.946Z,100.00
2022-08-21T17:10:27.018Z,100.00
2022-08-21T17:12:58.966Z,100.00
2022-08-21T17:15:29.925Z,100.00
2022-08-21T17:17:56.948Z,100.00
2022-08-21T17:20:24.895Z,100.00
2022-08-21T17:22:52.109Z,100.00
2022-08-21T17:25:20.191Z,100.00
2022-08-21T17:27:50.001Z,100.00
2022-08-21T17:30:18.721Z,100.00
2022-08-21T17:33:04.525Z,100.00
2022-08-21T17:35:31.978Z,100.00
2022-08-21T17:37:59.045Z,100.00
2022-08-21T17:40:26.834Z,100.00
2022-08-21T17:42:54.188Z,100.00
2022-08-21T17:45:21.627Z,100.00
2022-08-21T17:47:49.095Z,100.00
2022-08-21T17:50:18.760Z,100.00
2022-08-21T17:52:50.369Z,100.00
2022-08-21T17:55:20.670Z,100.00
2022-08-21T17:57:50.340Z,100.00
2022-08-21T18:00:20.313Z,100.00
2022-08-21T18:02:51.413Z,100.00
2022-08-21T18:05:18.789Z,100.00
2022-08-21T18:07:46.012Z,100.00
2022-08-21T18:10:13.596Z,100.00
2022-08-21T18:12:41.631Z,100.00
2022-08-21T18:15:11.011Z,100.00
2022-08-21T18:17:38.476Z,100.00
2022-08-21T18:20:08.221Z,100.00
2022-08-21T18:22:35.417Z,100.00
2022-08-21T18:25:02.594Z,100.00
2022-08-21T18:27:31.220Z,100.00
2022-08-21T18:30:00.786Z,100.00
2022-08-21T18:35:15.189Z,100.00
2022-08-21T18:37:43.656Z,100.00
2022-08-21T18:40:12.057Z,100.00
2022-08-21T18:42:55.093Z,100.00
2022-08-21T18:45:26.378Z,100.00
2022-08-21T18:47:57.250Z,100.00
2022-08-21T18:50:27.633Z,100.00
2022-08-21T18:52:56.676Z,100.00
2022-08-21T18:55:25.380Z,100.00
2022-08-21T18:57:55.127Z,100.00
2022-08-21T19:00:26.889Z,100.00
2022-08-21T19:02:54.333Z,100.00
2022-08-21T19:05:23.264Z,100.00
2022-08-21T19:07:51.653Z,100.00
2022-08-21T19:10:28.737Z,100.00
2022-08-21T19:12:59.825Z,100.00
2022-08-21T19:15:27.486Z,100.00
2022-08-21T19:17:56.601Z,100.00
2022-08-21T19:20:37.310Z,100.00
2022-08-21T19:28:50.893Z,100.00
2022-08-21T19:31:28.839Z,100.00
2022-08-21T19:34:06.088Z,100.00
2022-08-21T19:36:33.449Z,100.00
2022-08-21T19:39:01.490Z,100.00
2022-08-21T19:41:38.982Z,100.00
2022-08-21T19:44:10.446Z,100.00
2022-08-21T19:46:41.303Z,100.00
2022-08-21T19:49:13.649Z,100.00
2022-08-21T19:51:41.197Z,100.00
2022-08-21T19:54:35.291Z,100.00
2022-08-21T19:57:06.884Z,100.00
2022-08-21T19:59:37.054Z,100.00
2022-08-21T20:02:06.048Z,100.00
2022-08-21T20:04:33.889Z,100.00
2022-08-21T20:07:01.335Z,100.00
2022-08-21T20:09:28.508Z,100.00
2022-08-21T20:11:59.214Z,100.00
2022-08-21T20:14:31.766Z,100.00
2022-08-21T20:17:08.326Z,100.00
2022-08-21T20:19:39.389Z,100.00
2022-08-21T20:22:07.544Z,100.00
2022-08-21T20:24:36.703Z,100.00
2022-08-21T20:27:06.024Z,100.00
2022-08-21T20:29:36.242Z,100.00
2022-08-21T20:34:55.392Z,100.00
2022-08-21T20:37:35.807Z,100.00
2022-08-21T20:40:11.172Z,100.00
2022-08-21T20:42:47.434Z,100.00
2022-08-21T20:45:21.312Z,100.00
2022-08-21T20:50:42.418Z,100.00
2022-08-21T20:53:21.790Z,100.00
2022-08-21T20:55:50.837Z,100.00
2022-08-21T20:58:58.024Z,100.00
2022-08-21T21:01:26.095Z,100.00
2022-08-21T21:04:10.031Z,100.00
2022-08-21T21:06:42.998Z,100.00
2022-08-21T21:09:46.551Z,100.00
2022-08-21T21:12:27.650Z,100.00
2022-08-21T21:15:23.431Z,100.00
2022-08-21T21:18:03.131Z,100.00
2022-08-21T21:20:37.286Z,100.00
2022-08-21T21:23:19.917Z,100.00
2022-08-21T21:25:56.299Z,100.00
2022-08-21T21:28:33.543Z,100.00
2022-08-21T21:31:03.953Z,100.00
2022-08-21T21:33:31.194Z,100.00
2022-08-21T21:36:25.754Z,100.00
2022-08-21T21:39:08.887Z,100.00
2022-08-21T21:41:48.572Z,100.00
2022-08-21T21:44:39.703Z,100.00
2022-08-21T21:47:28.850Z,100.00
2022-08-21T21:50:19.014Z,100.00
2022-08-21T21:53:12.300Z,100.00
2022-08-21T21:55:57.916Z,100.00
2022-08-21T21:58:36.725Z,100.00
2022-08-21T22:01:18.515Z,100.00
2022-08-21T22:04:17.894Z,100.00
2022-08-21T22:07:07.465Z,100.00
2022-08-21T22:09:43.720Z,100.00
2022-08-21T22:12:33.304Z,100.00
2022-08-21T22:15:09.423Z,100.00
2022-08-21T22:17:45.683Z,100.00
2022-08-21T22:20:25.274Z,100.00
2022-08-21T22:22:55.810Z,100.00
2022-08-21T22:25:27.730Z,100.00
2022-08-21T22:28:04.099Z,100.00
2022-08-21T22:30:43.240Z,100.00
2022-08-21T22:33:20.202Z,100.00
2022-08-21T22:35:51.636Z,100.00
2022-08-21T22:38:27.227Z,100.00
2022-08-21T22:41:09.826Z,100.00
2022-08-21T22:43:37.270Z,100.00
2022-08-21T22:46:08.233Z,100.00
2022-08-21T22:48:46.517Z,100.00
2022-08-21T22:51:29.910Z,100.00
2022-08-21T22:53:58.006Z,100.00
2022-08-21T22:56:40.684Z,100.00
2022-08-21T22:59:24.157Z,100.00
2022-08-21T23:02:02.618Z,100.00
2022-08-21T23:04:33.668Z,100.00
2022-08-21T23:07:05.958Z,100.00
2022-08-21T23:09:38.869Z,100.00
2022-08-21T23:12:24.050Z,100.00
2022-08-21T23:15:06.851Z,100.00
2022-08-21T23:17:59.135Z,100.00
2022-08-21T23:20:38.497Z,100.00
2022-08-21T23:23:14.638Z,100.00
2022-08-21T23:26:04.610Z,100.00
2022-08-21T23:29:25.122Z,100.00
2022-08-21T23:32:19.095Z,100.00
2022-08-21T23:34:57.961Z,100.00
2022-08-21T23:37:51.441Z,100.00
2022-08-21T23:40:55.795Z,100.00
2022-08-21T23:43:41.865Z,100.00
2022-08-21T23:46:33.704Z,100.00
2022-08-21T23:49:13.794Z,100.00
2022-08-21T23:52:15.318Z,100.00
2022-08-21T23:55:17.781Z,100.00
2022-08-21T23:58:06.346Z,100.00
